EBBR/BRU METAR and TAF weather

Enter ICAO airport designator
Station Type Date Time Source
EBBR METAR 2020/09/18 15:50 UTC NOAA

EBBR 181550Z 08008KT 040V110 CAVOK 24/10 Q1020 NOSIG


Station Type Date Time Source
EBBR Decoded METAR 2020/09/18 15:50 UTC NOAA

Bruxelles National, Belgium (EBBR) 50-54N 004-32E 58M
Sep 18, 2020 - 11:50 AM EDT / 2020.09.18 1550 UTC
Wind: from the E (080 degrees) at 9 MPH (8 KT) (direction variable):0
Visibility: greater than 7 mile(s):0
Temperature: 75 F (24 C)
Dew Point: 50 F (10 C)
Relative Humidity: 41%
Pressure (altimeter): 30.12 in. Hg (1020 hPa)
ob: EBBR 181550Z 08008KT 040V110 CAVOK 24/10 Q1020 NOSIG
cycle: 16

Station Type Date Time Source
EBBR TAF 2020/09/18 12:27 UTC NOAA

TAF TAF EBBR 181110Z 1812/1918 07008KT CAVOK

Example: see airport list